Time;durP1;ratioP1;P1;durP2;ratioP2;P2;SDS_P1;SDS_P2;PMS_P1;PMS_P2;Temp;Humidity;BMP_temperature;BMP_pressure;BME280_temperature;BME280_humidity;BME280_pressure;Samples;Min_cycle;Max_cycle;Signal;HPM_P1;HPM_P2
2021/06/15 04:02:42;;;;;;;7.83;7.10;;;16.30;99.90;;;;;;4973743;28;20525;-63
2021/06/15 04:05:10;;;;;;;8.00;7.30;;;16.40;99.90;;;;;;4975326;28;20439;-66
2021/06/15 04:07:38;;;;;;;7.20;6.60;;;16.40;99.90;;;;;;4975082;28;20482;-65
2021/06/15 04:10:07;;;;;;;8.03;7.23;;;16.40;99.90;;;;;;4974789;28;20946;-65
2021/06/15 04:12:34;;;;;;;7.40;6.40;;;16.40;99.90;;;;;;4955804;29;20463;-65
2021/06/15 04:15:03;;;;;;;6.50;5.93;;;16.40;99.90;;;;;;4955796;29;20455;-65
2021/06/15 04:17:32;;;;;;;6.90;6.40;;;16.40;99.90;;;;;;4955725;29;20455;-65
2021/06/15 04:20:01;;;;;;;8.27;6.83;;;16.30;99.90;;;;;;4955924;28;20464;-66
2021/06/15 04:22:32;;;;;;;6.60;6.00;;;16.30;99.90;;;;;;4955658;28;20480;-65
2021/06/15 04:24:59;;;;;;;7.60;6.90;;;16.40;99.90;;;;;;4955802;29;20454;-66
2021/06/15 04:27:27;;;;;;;6.40;5.90;;;16.50;99.90;;;;;;4955646;29;20483;-65
2021/06/15 04:29:55;;;;;;;7.00;6.30;;;16.60;99.90;;;;;;4955197;29;20947;-66
2021/06/15 04:32:30;;;;;;;6.40;5.90;;;16.70;99.90;;;;;;4955588;29;20479;-66
2021/06/15 04:35:03;;;;;;;7.83;5.87;;;16.70;99.90;;;;;;4956763;28;20439;-65
2021/06/15 04:37:32;;;;;;;7.03;6.33;;;16.80;99.90;;;;;;4959649;29;20442;-65
2021/06/15 04:40:12;;;;;;;7.83;6.57;;;16.80;99.90;;;;;;4959530;29;20459;-65
2021/06/15 04:42:45;;;;;;;6.93;6.33;;;16.80;99.90;;;;;;4959523;29;20443;-65
2021/06/15 04:45:13;;;;;;;7.00;6.37;;;16.90;99.90;;;;;;4959685;29;20451;-64
2021/06/15 04:47:45;;;;;;;5.97;5.40;;;16.90;99.90;;;;;;4959471;28;20483;-65
2021/06/15 04:50:19;;;;;;;7.10;6.17;;;16.90;99.90;;;;;;4959838;29;20439;-63
2021/06/15 04:52:50;;;;;;;8.47;6.87;;;17.00;99.90;;;;;;4959317;29;20462;-64
2021/06/15 04:55:21;;;;;;;6.70;6.10;;;17.00;99.90;;;;;;4959433;29;20450;-64
2021/06/15 04:57:48;;;;;;;7.43;6.57;;;17.10;99.90;;;;;;4959017;29;20447;-64
2021/06/15 05:00:16;;;;;;;11.50;6.50;;;17.20;99.90;;;;;;4959085;28;20455;-64
2021/06/15 05:02:44;;;;;;;8.13;6.43;;;17.20;99.90;;;;;;4959379;28;20908;-64
2021/06/15 05:05:14;;;;;;;6.90;6.30;;;17.20;99.90;;;;;;4959067;29;20459;-64
2021/06/15 05:07:41;;;;;;;7.67;6.17;;;17.40;99.90;;;;;;4959095;29;20515;-64
2021/06/15 05:10:10;;;;;;;7.30;5.60;;;17.50;99.90;;;;;;4959108;29;20444;-64
2021/06/15 05:12:40;;;;;;;5.90;5.40;;;17.60;99.90;;;;;;4959038;29;20459;-63
2021/06/15 05:15:10;;;;;;;6.03;5.50;;;17.70;99.90;;;;;;4958965;29;20819;-64
2021/06/15 05:17:38;;;;;;;5.90;5.40;;;17.80;99.90;;;;;;4958853;29;20455;-64
2021/06/15 05:20:06;;;;;;;6.20;5.40;;;18.00;99.90;;;;;;4958872;29;20456;-64
2021/06/15 05:22:39;;;;;;;6.20;5.43;;;18.00;99.90;;;;;;4958760;29;20490;-64
2021/06/15 05:25:09;;;;;;;6.40;5.80;;;18.10;99.90;;;;;;4958408;29;20912;-64
2021/06/15 05:27:36;;;;;;;7.27;5.77;;;18.20;99.90;;;;;;4958325;29;20463;-64
2021/06/15 05:30:05;;;;;;;5.90;5.40;;;18.40;99.90;;;;;;4959297;29;20451;-64
2021/06/15 05:32:32;;;;;;;5.77;5.27;;;18.50;99.90;;;;;;4958559;29;20502;-64
2021/06/15 05:35:00;;;;;;;5.90;5.50;;;18.40;99.90;;;;;;4958395;29;20463;-64
2021/06/15 05:37:27;;;;;;;6.30;5.80;;;18.40;99.90;;;;;;4958727;29;20455;-64
2021/06/15 05:39:56;;;;;;;9.77;6.10;;;18.50;99.90;;;;;;4958663;29;20462;-64
2021/06/15 05:42:23;;;;;;;8.30;5.27;;;18.70;99.90;;;;;;4958288;29;20479;-64
2021/06/15 05:44:50;;;;;;;8.10;5.30;;;18.90;99.90;;;;;;4958301;29;20455;-64
2021/06/15 05:47:16;;;;;;;8.30;6.17;;;19.00;99.90;;;;;;4958034;28;20479;-64
2021/06/15 05:49:43;;;;;;;10.80;6.23;;;19.20;99.90;;;;;;4958812;29;20462;-64
2021/06/15 05:52:12;;;;;;;8.13;5.50;;;19.40;99.90;;;;;;4958156;29;20479;-64
2021/06/15 05:54:40;;;;;;;11.37;6.13;;;19.40;99.90;;;;;;4958489;29;20811;-65
2021/06/15 05:57:09;;;;;;;8.43;6.03;;;19.40;99.90;;;;;;4959026;29;20470;-64
2021/06/15 05:59:36;;;;;;;11.80;5.67;;;19.50;99.90;;;;;;4958488;29;20463;-64
2021/06/15 06:02:03;;;;;;;5.60;5.03;;;19.70;99.90;;;;;;4957878;29;21007;-65
2021/06/15 06:04:33;;;;;;;6.03;5.50;;;19.90;99.90;;;;;;4958327;28;20467;-64
2021/06/15 06:09:44;;;;;;;6.57;5.50;;;20.20;99.90;;;;;;4957925;29;20435;-65
2021/06/15 06:12:12;;;;;;;5.67;4.67;;;20.50;99.90;;;;;;4957811;29;20479;-65
2021/06/15 06:14:39;;;;;;;8.27;5.67;;;20.70;99.90;;;;;;4958022;29;20967;-64
2021/06/15 06:17:08;;;;;;;7.10;5.07;;;20.90;99.90;;;;;;4957779;29;20820;-65
2021/06/15 06:19:36;;;;;;;8.00;5.33;;;21.10;99.90;;;;;;4957931;28;20475;-65
2021/06/15 06:22:03;;;;;;;6.17;5.20;;;21.40;99.90;;;;;;4958433;29;20480;-64
2021/06/15 06:24:30;;;;;;;12.47;5.73;;;21.50;99.90;;;;;;4957646;29;20440;-64
2021/06/15 06:26:57;;;;;;;9.47;5.90;;;21.80;99.90;;;;;;4957272;29;21063;-65
2021/06/15 06:29:25;;;;;;;7.20;4.80;;;21.90;99.90;;;;;;4957604;29;20467;-64
2021/06/15 06:31:52;;;;;;;7.87;5.23;;;22.10;99.90;;;;;;4957597;29;20479;-64
2021/06/15 06:34:19;;;;;;;8.50;5.83;;;22.30;99.90;;;;;;4957525;29;20443;-65
2021/06/15 06:36:45;;;;;;;6.73;6.03;;;22.60;99.90;;;;;;4957451;29;20455;-65
2021/06/15 06:39:12;;;;;;;6.27;5.20;;;22.50;99.90;;;;;;4957501;29;20456;-65
2021/06/15 06:41:39;;;;;;;9.40;5.87;;;22.80;99.90;;;;;;4957322;29;20480;-65
2021/06/15 06:44:06;;;;;;;6.40;5.03;;;23.20;99.90;;;;;;4957106;29;20455;-65
2021/06/15 06:46:35;;;;;;;7.30;5.50;;;23.40;99.90;;;;;;4957217;28;20448;-65
2021/06/15 06:49:02;;;;;;;9.80;5.50;;;23.60;99.90;;;;;;4957679;29;20484;-65
2021/06/15 06:51:29;;;;;;;9.70;6.10;;;23.80;99.90;;;;;;4957220;29;20483;-64
2021/06/15 06:53:56;;;;;;;6.60;6.00;;;24.00;99.90;;;;;;4957703;29;20455;-64
2021/06/15 06:56:23;;;;;;;9.83;5.07;;;24.10;99.90;;;;;;4957397;29;20460;-64
2021/06/15 06:58:49;;;;;;;7.13;4.97;;;24.40;99.90;;;;;;4957680;28;20456;-64
2021/06/15 07:01:16;;;;;;;5.10;4.60;;;24.70;99.90;;;;;;4957581;29;20491;-64
2021/06/15 07:03:44;;;;;;;5.80;5.23;;;25.20;99.90;;;;;;4957620;29;20532;-64
2021/06/15 07:06:11;;;;;;;6.63;4.03;;;25.80;99.90;;;;;;4957032;29;20459;-64
2021/06/15 07:08:38;;;;;;;9.87;4.30;;;26.60;99.90;;;;;;4956719;29;20487;-65
2021/06/15 07:11:04;;;;;;;6.53;5.27;;;27.50;99.90;;;;;;4956708;29;20479;-65
2021/06/15 07:13:31;;;;;;;5.47;4.27;;;28.00;97.30;;;;;;4956659;29;20460;-65
2021/06/15 07:15:58;;;;;;;5.00;4.60;;;28.10;97.10;;;;;;4956128;29;20444;-65
2021/06/15 07:18:24;;;;;;;6.50;4.63;;;28.70;96.20;;;;;;4956600;29;20462;-65
2021/06/15 07:20:53;;;;;;;7.33;4.20;;;29.30;94.20;;;;;;4956299;29;20487;-65
2021/06/15 07:23:20;;;;;;;5.47;5.07;;;29.90;92.80;;;;;;4956418;29;20506;-65
2021/06/15 07:25:46;;;;;;;6.30;4.73;;;30.30;88.10;;;;;;4957311;29;20551;-65
2021/06/15 07:28:13;;;;;;;4.93;4.53;;;30.50;86.60;;;;;;4956366;29;20483;-66
2021/06/15 07:30:40;;;;;;;5.27;4.77;;;30.80;88.20;;;;;;4956197;29;20483;-65
2021/06/15 07:33:07;;;;;;;6.27;4.57;;;31.00;82.70;;;;;;4956707;29;20459;-65
2021/06/15 07:35:33;;;;;;;4.97;4.60;;;30.70;85.50;;;;;;4956180;28;20944;-65
2021/06/15 07:38:02;;;;;;;4.80;4.23;;;30.80;83.80;;;;;;4956461;29;20818;-65
2021/06/15 07:40:28;;;;;;;6.47;4.33;;;31.60;83.10;;;;;;4955822;29;20829;-65
2021/06/15 07:42:57;;;;;;;6.40;4.07;;;31.90;80.30;;;;;;4956206;29;20824;-65
2021/06/15 07:45:26;;;;;;;11.00;4.40;;;31.80;78.90;;;;;;4956064;29;20489;-65
2021/06/15 07:47:53;;;;;;;4.47;4.07;;;31.70;77.30;;;;;;4956060;29;20530;-65
2021/06/15 07:50:20;;;;;;;5.30;4.50;;;32.30;75.30;;;;;;4955979;29;20459;-66
2021/06/15 07:52:47;;;;;;;5.40;4.27;;;32.50;70.90;;;;;;4955918;29;20467;-65
2021/06/15 07:55:16;;;;;;;6.43;4.40;;;32.50;70.00;;;;;;4955875;29;20455;-66
2021/06/15 07:57:44;;;;;;;5.27;4.23;;;32.40;70.20;;;;;;4955684;29;20451;-65
2021/06/15 08:00:12;;;;;;;6.97;4.13;;;32.60;70.70;;;;;;4955447;29;20549;-65
2021/06/15 08:02:39;;;;;;;4.63;4.23;;;32.80;72.10;;;;;;4955772;29;20455;-65
2021/06/15 08:05:06;;;;;;;5.70;3.67;;;33.10;66.60;;;;;;4955725;29;20452;-65
2021/06/15 08:07:33;;;;;;;3.97;3.57;;;33.50;68.00;;;;;;4955943;29;20455;-65
2021/06/15 08:10:00;;;;;;;5.17;3.80;;;33.50;67.70;;;;;;4954874;28;20443;-65
2021/06/15 08:12:28;;;;;;;3.97;3.57;;;33.10;65.00;;;;;;4955452;29;20807;-65
2021/06/15 08:14:55;;;;;;;6.93;3.60;;;33.30;65.30;;;;;;4955618;29;20455;-65
2021/06/15 08:17:21;;;;;;;4.97;3.60;;;33.30;64.00;;;;;;4955643;29;20459;-65
2021/06/15 08:19:48;;;;;;;4.77;3.60;;;34.10;61.20;;;;;;4956317;29;20431;-66
2021/06/15 08:22:15;;;;;;;4.00;3.60;;;34.40;62.50;;;;;;4955512;29;20530;-65
2021/06/15 08:24:42;;;;;;;4.90;3.93;;;34.60;60.30;;;;;;4955846;29;20444;-65
2021/06/15 08:27:09;;;;;;;5.87;4.10;;;34.80;61.50;;;;;;4955735;29;20481;-65
2021/06/15 08:29:37;;;;;;;5.00;3.53;;;34.90;59.60;;;;;;4955743;29;20482;-65
2021/06/15 08:32:04;;;;;;;5.07;4.00;;;34.40;60.20;;;;;;4955669;29;20529;-65
2021/06/15 08:34:31;;;;;;;4.10;3.50;;;34.40;61.50;;;;;;4956100;29;20847;-66
2021/06/15 08:36:57;;;;;;;5.20;4.10;;;34.40;60.60;;;;;;4955827;29;20463;-65
2021/06/15 08:39:24;;;;;;;3.87;3.37;;;34.40;59.70;;;;;;4955565;29;20458;-64
2021/06/15 08:41:51;;;;;;;3.77;3.47;;;34.20;58.80;;;;;;4955400;29;20475;-64
2021/06/15 08:44:17;;;;;;;5.67;4.23;;;34.30;58.60;;;;;;4955462;29;20459;-64
2021/06/15 08:46:46;;;;;;;3.33;3.10;;;34.70;57.30;;;;;;4955500;29;20454;-64
2021/06/15 08:49:13;;;;;;;4.57;3.90;;;35.00;56.40;;;;;;4955128;29;20470;-63
2021/06/15 08:51:42;;;;;;;5.67;3.83;;;34.90;57.90;;;;;;4955797;29;20482;-64
2021/06/15 08:54:09;;;;;;;3.90;3.60;;;34.70;55.60;;;;;;4955384;29;20513;-64
2021/06/15 08:56:36;;;;;;;3.50;2.80;;;34.40;56.60;;;;;;4954989;29;20948;-64
2021/06/15 08:59:17;;;;;;;3.70;3.17;;;34.50;54.50;;;;;;4955269;29;20474;-65
2021/06/15 09:01:45;;;;;;;3.60;3.30;;;34.60;56.50;;;;;;4955070;28;20514;-64
2021/06/15 09:04:12;;;;;;;3.77;3.00;;;35.00;58.30;;;;;;4956179;28;20459;-63
2021/06/15 09:06:38;;;;;;;3.83;3.30;;;34.80;55.80;;;;;;4955414;29;20459;-63
2021/06/15 09:09:06;;;;;;;8.53;3.43;;;34.40;56.00;;;;;;4955406;29;20474;-63
2021/06/15 09:11:48;;;;;;;4.97;3.60;;;35.00;57.20;;;;;;4955182;28;20514;-63
2021/06/15 09:14:15;;;;;;;8.57;3.70;;;35.50;56.30;;;;;;4955288;29;20446;-63
2021/06/15 09:16:47;;;;;;;5.37;3.40;;;35.90;53.00;;;;;;4955475;29;20463;-63
2021/06/15 09:19:19;;;;;;;3.03;2.80;;;36.10;53.80;;;;;;4955314;29;20442;-64
2021/06/15 09:21:48;;;;;;;5.23;3.37;;;36.40;54.10;;;;;;4957102;28;20482;-64
2021/06/15 09:24:17;;;;;;;3.63;3.43;;;36.60;53.10;;;;;;4958542;29;21132;-64
2021/06/15 09:27:03;;;;;;;3.23;2.87;;;37.20;51.90;;;;;;4958796;29;20491;-64
2021/06/15 09:29:45;;;;;;;8.50;3.70;;;37.60;53.10;;;;;;4958618;29;20471;-64
2021/06/15 09:32:16;;;;;;;3.63;3.33;;;38.00;50.80;;;;;;4958317;29;21018;-64
2021/06/15 09:34:58;;;;;;;8.43;3.47;;;38.50;50.50;;;;;;4958483;29;20845;-63
2021/06/15 09:37:35;;;;;;;3.93;3.63;;;38.10;53.30;;;;;;4958711;29;20447;-63
2021/06/15 09:40:08;;;;;;;3.27;2.97;;;38.20;49.30;;;;;;4958624;29;20446;-63
2021/06/15 09:42:35;;;;;;;2.87;2.67;;;37.00;49.50;;;;;;4958535;29;20486;-63
2021/06/15 09:45:17;;;;;;;3.37;3.13;;;36.50;51.00;;;;;;4958405;29;20455;-64
2021/06/15 09:47:45;;;;;;;3.50;3.20;;;35.90;53.00;;;;;;4964146;29;20446;-63
2021/06/15 09:50:12;;;;;;;4.03;2.53;;;36.50;51.50;;;;;;4961063;29;20455;-65
2021/06/15 09:52:39;;;;;;;5.63;3.13;;;37.20;51.30;;;;;;4959523;29;20195;-64
2021/06/15 09:55:07;;;;;;;3.90;3.60;;;37.50;51.90;;;;;;4959183;29;20463;-65
2021/06/15 09:57:37;;;;;;;3.67;3.03;;;36.90;50.80;;;;;;4958701;29;20458;-65
2021/06/15 10:00:09;;;;;;;4.23;2.93;;;36.70;49.60;;;;;;4958524;29;20451;-66
2021/06/15 10:02:45;;;;;;;3.07;2.87;;;36.70;49.40;;;;;;4958311;28;21081;-66
2021/06/15 10:05:23;;;;;;;5.20;3.33;;;36.60;50.70;;;;;;4958302;29;20443;-65
2021/06/15 10:07:51;;;;;;;6.10;3.50;;;36.90;50.40;;;;;;4958180;29;20452;-65
2021/06/15 10:10:19;;;;;;;2.80;2.60;;;37.20;47.80;;;;;;4967499;29;20479;-66
2021/06/15 10:12:47;;;;;;;5.90;2.70;;;36.60;48.60;;;;;;4969454;29;20461;-66
2021/06/15 10:15:14;;;;;;;3.03;2.77;;;36.20;48.60;;;;;;4968385;28;20462;-65
2021/06/15 10:17:42;;;;;;;3.30;2.87;;;34.70;50.30;;;;;;4968367;29;20435;-66
2021/06/15 10:20:11;;;;;;;4.73;3.07;;;34.90;51.40;;;;;;4962301;29;20932;-65
2021/06/15 10:22:40;;;;;;;3.63;3.33;;;35.00;49.00;;;;;;4957509;29;20482;-65
2021/06/15 10:25:08;;;;;;;5.03;3.40;;;35.60;49.40;;;;;;4958185;29;20513;-65
2021/06/15 10:27:35;;;;;;;5.80;2.90;;;35.80;50.50;;;;;;4957742;28;20462;-65
2021/06/15 10:30:02;;;;;;;4.07;2.87;;;35.80;50.10;;;;;;4957296;29;20809;-66
2021/06/15 10:32:29;;;;;;;3.33;3.00;;;36.00;51.90;;;;;;4956593;28;20486;-65
2021/06/15 10:34:58;;;;;;;3.90;2.70;;;36.10;51.30;;;;;;4957561;29;20455;-66
2021/06/15 10:37:45;;;;;;;2.70;2.60;;;36.20;52.20;;;;;;4957595;29;20465;-65
2021/06/15 10:40:48;;;;;;;2.70;2.60;;;36.10;48.40;;;;;;4957815;29;20445;-64
2021/06/15 10:43:19;;;;;;;3.03;2.80;;;36.70;48.50;;;;;;4957216;29;20987;-65
2021/06/15 10:45:48;;;;;;;5.80;3.10;;;36.20;48.50;;;;;;4957074;29;20934;-64
2021/06/15 10:48:40;;;;;;;3.87;3.43;;;36.10;51.20;;;;;;4957231;29;20546;-66
2021/06/15 10:51:20;;;;;;;4.40;2.70;;;36.30;51.00;;;;;;4957029;28;20471;-66
2021/06/15 10:53:48;;;;;;;3.37;3.03;;;35.50;51.30;;;;;;4957076;29;20458;-66
2021/06/15 10:56:17;;;;;;;3.10;2.90;;;35.50;51.20;;;;;;4957099;29;20459;-66
2021/06/15 10:59:02;;;;;;;3.10;2.90;;;35.70;51.80;;;;;;4957063;29;20451;-66
2021/06/15 11:01:29;;;;;;;4.63;3.13;;;36.00;48.90;;;;;;4956570;29;21010;-66
2021/06/15 11:03:59;;;;;;;5.63;3.40;;;36.10;49.70;;;;;;4956998;29;20458;-65
2021/06/15 11:06:51;;;;;;;2.70;2.50;;;36.10;47.70;;;;;;4956819;29;20458;-65
2021/06/15 11:09:33;;;;;;;10.50;3.17;;;36.20;53.30;;;;;;4956831;29;20514;-66
2021/06/15 11:12:21;;;;;;;3.40;3.10;;;36.50;50.70;;;;;;4956759;29;20475;-66
2021/06/15 11:15:11;;;;;;;2.90;2.60;;;36.80;48.80;;;;;;4956741;29;20443;-66
2021/06/15 11:17:50;;;;;;;4.33;2.87;;;36.50;50.10;;;;;;4957364;28;20522;-66
2021/06/15 11:20:41;;;;;;;4.00;2.77;;;36.50;48.30;;;;;;4956558;29;20443;-66
2021/06/15 11:23:29;;;;;;;3.60;3.30;;;36.00;47.60;;;;;;4946776;28;20499;-66
2021/06/15 11:26:12;;;;;;;3.50;3.10;;;35.20;50.80;;;;;;4956784;29;20450;-66
2021/06/15 11:28:42;;;;;;;3.43;3.20;;;34.80;53.00;;;;;;4956685;29;20539;-67
2021/06/15 11:31:45;;;;;;;4.13;2.60;;;35.00;51.20;;;;;;4956608;29;20481;-67
2021/06/15 11:34:17;;;;;;;4.00;2.97;;;34.80;51.50;;;;;;4958052;29;20458;-67
2021/06/15 11:36:47;;;;;;;3.03;2.30;;;34.00;52.60;;;;;;4956266;29;20806;-67
2021/06/15 11:39:41;;;;;;;3.20;2.40;;;34.00;49.40;;;;;;4956465;29;20440;-66
2021/06/15 11:42:19;;;;;;;3.43;2.77;;;33.60;50.40;;;;;;4958654;29;20486;-66
2021/06/15 11:44:53;;;;;;;3.23;2.73;;;33.30;52.20;;;;;;4966547;28;20447;-66
2021/06/15 11:47:28;;;;;;;3.20;3.10;;;33.10;49.30;;;;;;4958535;29;20443;-66
2021/06/15 11:50:18;;;;;;;4.60;3.03;;;32.70;50.30;;;;;;4956339;29;20479;-66
2021/06/15 11:52:48;;;;;;;4.67;2.87;;;32.60;54.00;;;;;;4956178;29;20439;-66
2021/06/15 11:55:15;;;;;;;3.00;2.70;;;32.50;53.50;;;;;;4956224;28;20451;-66
2021/06/15 11:57:44;;;;;;;6.43;2.87;;;32.70;52.50;;;;;;4956398;29;20459;-66
2021/06/15 12:00:17;;;;;;;2.83;2.53;;;32.90;54.30;;;;;;4955997;29;20455;-66
2021/06/15 12:02:44;;;;;;;2.53;2.33;;;33.00;54.00;;;;;;4955933;29;20440;-66
2021/06/15 12:05:13;;;;;;;6.00;3.17;;;33.10;53.30;;;;;;4956021;29;20451;-66
2021/06/15 12:07:42;;;;;;;2.63;2.43;;;33.30;52.20;;;;;;4955952;29;20454;-66
2021/06/15 12:10:11;;;;;;;2.70;2.50;;;33.30;53.00;;;;;;4955767;29;20487;-66
2021/06/15 12:13:03;;;;;;;3.50;3.20;;;33.00;50.50;;;;;;4956174;28;20475;-66
2021/06/15 12:15:35;;;;;;;5.07;2.60;;;33.10;52.70;;;;;;4955801;29;20920;-66
2021/06/15 12:18:02;;;;;;;2.73;2.53;;;33.10;55.30;;;;;;4955995;29;20443;-66
2021/06/15 12:20:33;;;;;;;6.07;2.47;;;33.10;51.20;;;;;;4955743;29;20529;-65
2021/06/15 12:23:00;;;;;;;4.20;2.50;;;33.00;51.60;;;;;;4955550;29;20804;-65
2021/06/15 12:25:32;;;;;;;3.20;2.90;;;33.10;52.10;;;;;;4955820;29;20467;-65
2021/06/15 12:28:11;;;;;;;3.80;2.40;;;33.00;53.10;;;;;;4955868;29;20460;-67
2021/06/15 12:30:39;;;;;;;2.33;2.20;;;33.00;52.60;;;;;;4955799;29;20486;-66
2021/06/15 12:33:07;;;;;;;3.13;2.50;;;32.90;48.00;;;;;;4956013;28;20530;-65
2021/06/15 12:35:33;;;;;;;2.50;2.30;;;32.80;50.70;;;;;;4955630;29;20459;-65
2021/06/15 12:38:09;;;;;;;3.10;2.80;;;32.10;49.20;;;;;;4955653;29;20459;-65
2021/06/15 12:40:37;;;;;;;2.77;2.43;;;32.10;50.70;;;;;;4955632;28;20507;-65
2021/06/15 12:43:04;;;;;;;2.90;2.70;;;32.10;52.90;;;;;;4955602;29;20466;-65
2021/06/15 12:45:33;;;;;;;1.90;1.80;;;31.70;51.30;;;;;;4955382;29;20820;-65
2021/06/15 12:48:01;;;;;;;5.13;2.40;;;31.80;52.40;;;;;;4955684;28;20494;-65
2021/06/15 12:50:28;;;;;;;2.40;2.20;;;32.00;48.80;;;;;;4955350;29;20474;-66
2021/06/15 12:53:05;;;;;;;2.87;2.67;;;32.20;50.60;;;;;;4955166;29;20967;-65
2021/06/15 12:55:32;;;;;;;4.03;2.57;;;32.60;51.00;;;;;;4956039;28;20439;-65
2021/06/15 12:58:01;;;;;;;2.63;2.23;;;32.30;50.50;;;;;;4959248;29;20455;-65
2021/06/15 13:00:28;;;;;;;3.63;2.13;;;32.00;52.20;;;;;;4958839;29;20451;-65
2021/06/15 13:03:08;;;;;;;2.40;2.30;;;31.70;52.20;;;;;;4959243;29;20451;-65
2021/06/15 13:05:34;;;;;;;2.20;1.83;;;31.50;50.20;;;;;;4959147;29;20442;-65
2021/06/15 13:08:02;;;;;;;2.33;2.23;;;31.80;49.90;;;;;;4959162;29;20455;-65
2021/06/15 13:10:29;;;;;;;3.17;2.33;;;32.20;48.50;;;;;;4958935;29;20494;-65
2021/06/15 13:12:58;;;;;;;3.77;2.40;;;32.20;51.70;;;;;;4959174;29;20510;-66
2021/06/15 13:15:25;;;;;;;6.60;2.70;;;32.30;51.50;;;;;;4959095;29;20451;-65
2021/06/15 13:17:56;;;;;;;3.03;2.57;;;32.40;48.20;;;;;;4958993;29;20455;-65
2021/06/15 13:20:25;;;;;;;3.23;1.90;;;32.10;50.50;;;;;;4958920;28;20487;-65
2021/06/15 13:22:53;;;;;;;2.83;2.63;;;32.10;52.40;;;;;;4958917;29;20462;-65
2021/06/15 13:25:22;;;;;;;2.53;1.90;;;31.80;52.00;;;;;;4958538;29;20963;-66
2021/06/15 13:27:55;;;;;;;2.40;2.20;;;32.10;50.90;;;;;;4958672;29;20940;-65
2021/06/15 13:30:24;;;;;;;2.33;2.13;;;32.10;51.00;;;;;;4958605;29;20467;-65
2021/06/15 13:33:02;;;;;;;3.00;2.23;;;32.10;50.30;;;;;;4958303;29;20455;-65
2021/06/15 13:35:31;;;;;;;2.10;2.00;;;32.20;48.50;;;;;;4958732;28;20447;-65
2021/06/15 13:37:59;;;;;;;2.67;2.47;;;32.20;46.50;;;;;;4959253;29;20460;-65
2021/06/15 13:40:32;;;;;;;2.47;2.27;;;32.20;47.80;;;;;;4958323;29;20498;-65
2021/06/15 13:43:00;;;;;;;3.80;2.37;;;32.30;46.30;;;;;;4958575;29;20809;-65
2021/06/15 13:45:29;;;;;;;2.50;2.13;;;32.40;47.20;;;;;;4958668;28;20466;-65
2021/06/15 13:47:56;;;;;;;2.40;2.30;;;32.50;48.10;;;;;;4958694;29;20466;-66
2021/06/15 13:50:22;;;;;;;4.10;2.10;;;32.70;48.50;;;;;;4958295;29;20843;-66
2021/06/15 13:52:51;;;;;;;2.00;1.90;;;32.30;46.70;;;;;;4958220;29;20456;-66
2021/06/15 13:55:18;;;;;;;1.90;1.80;;;32.50;54.80;;;;;;4958076;28;20943;-66
2021/06/15 13:57:45;;;;;;;5.07;1.97;;;32.70;48.50;;;;;;4958259;29;20463;-66
2021/06/15 14:00:15;;;;;;;2.13;1.97;;;32.80;47.50;;;;;;4958130;28;20487;-66
2021/06/15 14:02:42;;;;;;;4.50;2.10;;;32.80;47.40;;;;;;4958115;28;20452;-66
2021/06/15 14:05:10;;;;;;;2.40;2.20;;;32.80;48.50;;;;;;4958042;29;20838;-66
2021/06/15 14:07:37;;;;;;;2.30;2.10;;;32.90;49.00;;;;;;4956764;28;20522;-66
2021/06/15 14:10:07;;;;;;;2.43;2.30;;;32.90;47.90;;;;;;4957980;29;20475;-66
2021/06/15 14:12:34;;;;;;;2.00;1.90;;;32.80;48.30;;;;;;4958695;28;20818;-66
2021/06/15 14:15:04;;;;;;;2.30;1.87;;;32.50;49.60;;;;;;4957496;29;20454;-66
2021/06/15 14:17:30;;;;;;;2.30;2.10;;;32.30;47.60;;;;;;4957496;29;20958;-65
2021/06/15 14:19:57;;;;;;;3.33;2.13;;;32.30;47.10;;;;;;4957775;29;20909;-65
2021/06/15 14:22:24;;;;;;;5.13;2.37;;;32.50;49.10;;;;;;4957730;29;20475;-65
2021/06/15 14:24:50;;;;;;;2.30;2.10;;;32.60;50.00;;;;;;4957750;29;20455;-66
2021/06/15 14:27:21;;;;;;;2.27;1.60;;;32.60;48.30;;;;;;4957783;29;20836;-66
2021/06/15 14:29:47;;;;;;;2.40;2.20;;;32.70;49.00;;;;;;4957604;29;20503;-66
2021/06/15 14:32:14;;;;;;;1.73;1.70;;;32.60;46.60;;;;;;4957636;29;20487;-66
2021/06/15 14:34:41;;;;;;;4.03;2.10;;;32.60;48.80;;;;;;4957695;29;20459;-66
2021/06/15 14:37:08;;;;;;;1.83;1.73;;;32.60;46.10;;;;;;4957543;29;20467;-66
2021/06/15 14:39:35;;;;;;;2.30;2.20;;;32.50;47.50;;;;;;4957392;29;21037;-66
2021/06/15 14:42:04;;;;;;;2.13;1.87;;;32.70;47.90;;;;;;4957088;29;21006;-66
2021/06/15 14:44:33;;;;;;;2.53;2.13;;;32.80;47.90;;;;;;4957490;29;20550;-66
2021/06/15 14:47:00;;;;;;;2.67;2.00;;;32.30;46.00;;;;;;4957442;29;20482;-66
2021/06/15 14:49:27;;;;;;;4.00;1.47;;;32.20;47.40;;;;;;4956985;29;20491;-65
2021/06/15 14:51:54;;;;;;;2.97;2.10;;;32.30;48.10;;;;;;4957066;29;20487;-65
2021/06/15 14:54:21;;;;;;;4.23;1.90;;;32.50;50.20;;;;;;4957722;28;20455;-66
2021/06/15 14:56:48;;;;;;;2.97;1.77;;;32.50;47.10;;;;;;4957156;29;20455;-66
2021/06/15 14:59:15;;;;;;;2.13;1.93;;;32.40;47.40;;;;;;4957170;29;20821;-66
2021/06/15 15:01:43;;;;;;;2.30;1.97;;;32.50;44.70;;;;;;4956646;29;20482;-64
2021/06/15 15:04:09;;;;;;;2.03;1.93;;;32.60;44.80;;;;;;4957081;29;20459;-64
2021/06/15 15:06:38;;;;;;;3.80;1.80;;;32.60;48.20;;;;;;4957588;29;20462;-64
2021/06/15 15:09:05;;;;;;;3.73;2.10;;;32.60;48.40;;;;;;4958578;29;20462;-64
2021/06/15 15:11:33;;;;;;;2.23;2.13;;;32.60;48.10;;;;;;4961600;29;20510;-65
2021/06/15 15:14:00;;;;;;;1.80;1.70;;;32.60;47.20;;;;;;4959903;29;20483;-65
2021/06/15 15:16:27;;;;;;;2.13;2.03;;;32.40;47.20;;;;;;4956790;29;20852;-65
2021/06/15 15:18:56;;;;;;;2.00;1.93;;;32.30;45.90;;;;;;4956875;28;20439;-64
2021/06/15 15:21:25;;;;;;;1.83;1.60;;;32.40;48.60;;;;;;4957403;29;20477;-63
2021/06/15 15:23:54;;;;;;;3.53;1.90;;;32.40;47.30;;;;;;4956583;29;20452;-65
2021/06/15 15:26:21;;;;;;;1.90;1.80;;;32.40;47.40;;;;;;4956597;29;20970;-63
2021/06/15 15:28:48;;;;;;;4.03;2.10;;;32.40;48.50;;;;;;4956730;29;20458;-63
2021/06/15 15:31:15;;;;;;;3.73;2.17;;;32.40;48.20;;;;;;4956560;29;20494;-64
2021/06/15 15:33:41;;;;;;;2.00;1.90;;;32.40;49.30;;;;;;4956463;29;20463;-64
2021/06/15 15:36:10;;;;;;;2.63;1.93;;;32.50;49.00;;;;;;4956953;29;20459;-65
2021/06/15 15:38:38;;;;;;;3.20;2.40;;;32.60;49.70;;;;;;4956408;29;20463;-65
2021/06/15 15:41:05;;;;;;;1.90;1.87;;;32.60;49.30;;;;;;4956539;29;20475;-65
2021/06/15 15:43:32;;;;;;;1.90;1.80;;;32.60;47.20;;;;;;4957028;29;20462;-65
2021/06/15 15:46:01;;;;;;;2.53;2.17;;;32.50;47.70;;;;;;4956271;29;20455;-66
2021/06/15 15:48:33;;;;;;;3.40;2.00;;;32.30;48.40;;;;;;4956365;29;20459;-66
2021/06/15 15:50:59;;;;;;;6.03;2.83;;;32.20;49.30;;;;;;4955940;29;20483;-65
2021/06/15 15:53:28;;;;;;;3.00;2.70;;;32.20;48.60;;;;;;4956430;29;20463;-65
2021/06/15 15:55:54;;;;;;;5.13;2.10;;;32.20;48.00;;;;;;4956416;29;20849;-64
2021/06/15 15:58:21;;;;;;;3.43;3.13;;;32.10;50.80;;;;;;4955780;29;20982;-64
2021/06/15 16:00:48;;;;;;;3.63;2.20;;;32.10;50.30;;;;;;4955635;29;20483;-64
2021/06/15 16:03:15;;;;;;;2.97;2.77;;;32.20;50.80;;;;;;4955651;29;20975;-64
2021/06/15 16:05:41;;;;;;;2.33;2.20;;;32.20;50.30;;;;;;4956602;29;20460;-64
2021/06/15 16:08:08;;;;;;;3.33;2.07;;;32.20;50.00;;;;;;4957015;29;20431;-64
2021/06/15 16:10:36;;;;;;;3.77;2.73;;;32.10;50.20;;;;;;4956001;29;20475;-63
2021/06/15 16:13:03;;;;;;;2.40;1.80;;;31.90;50.40;;;;;;4955951;28;20532;-63
2021/06/15 16:15:30;;;;;;;2.70;2.33;;;31.80;49.40;;;;;;4955635;29;20464;-64
2021/06/15 16:17:57;;;;;;;2.13;2.03;;;31.90;49.30;;;;;;4955762;29;20459;-64
2021/06/15 16:20:24;;;;;;;2.40;2.20;;;31.80;48.80;;;;;;4955504;29;20793;-64
2021/06/15 16:22:50;;;;;;;2.37;2.17;;;31.80;48.40;;;;;;4955652;29;20455;-64
2021/06/15 16:25:18;;;;;;;2.93;2.20;;;31.60;48.90;;;;;;4955520;29;20455;-64
2021/06/15 16:27:46;;;;;;;3.47;2.20;;;31.40;49.30;;;;;;4955268;29;20459;-65
2021/06/15 16:30:19;;;;;;;2.63;2.43;;;31.30;48.70;;;;;;4954811;29;20466;-65
2021/06/15 16:32:45;;;;;;;2.70;2.50;;;31.10;49.50;;;;;;4955450;29;20440;-65
2021/06/15 16:35:12;;;;;;;2.70;2.50;;;31.30;48.60;;;;;;4955914;29;20444;-65
2021/06/15 16:37:39;;;;;;;3.60;1.90;;;31.40;48.80;;;;;;4955529;29;20463;-65
2021/06/15 16:40:08;;;;;;;2.55;1.90;;;31.30;49.10;;;;;;4954642;29;20467;-65
2021/06/15 16:42:35;;;;;;;2.20;2.10;;;31.40;49.30;;;;;;4955432;28;20224;-65
2021/06/15 16:45:05;;;;;;;2.70;2.50;;;31.40;50.50;;;;;;4955209;29;20463;-64
2021/06/15 16:47:32;;;;;;;2.43;2.33;;;31.50;49.60;;;;;;4955380;29;20450;-65
2021/06/15 16:49:59;;;;;;;1.97;1.87;;;31.40;49.50;;;;;;4956215;29;20800;-65
2021/06/15 16:52:26;;;;;;;2.30;2.10;;;31.50;48.80;;;;;;4955306;29;20487;-63
2021/06/15 16:54:52;;;;;;;2.03;2.03;;;31.60;48.20;;;;;;4955589;28;20451;-64
2021/06/15 16:57:19;;;;;;;2.40;2.20;;;31.40;48.40;;;;;;4955301;29;20455;-63
2021/06/15 16:59:46;;;;;;;2.63;2.40;;;31.30;48.70;;;;;;4955322;29;20456;-65
2021/06/15 17:02:14;;;;;;;2.43;2.23;;;31.30;49.20;;;;;;4954760;29;20483;-64